createdAt,value
2019-03-31T00:01:07.677Z,0.00
2019-03-31T00:01:56.970Z,0.00
2019-03-31T00:02:56.956Z,0.00
2019-03-31T00:03:56.944Z,0.00
2019-03-31T00:04:56.937Z,0.00
2019-03-31T00:05:56.937Z,0.00
2019-03-31T00:06:56.926Z,0.00
2019-03-31T00:07:56.925Z,0.00
2019-03-31T00:08:56.918Z,0.00
2019-03-31T00:09:56.906Z,0.00
2019-03-31T00:10:56.901Z,0.00
2019-03-31T00:11:56.896Z,0.00
2019-03-31T00:12:56.889Z,0.00
2019-03-31T00:13:56.882Z,0.00
2019-03-31T00:14:56.875Z,0.00
2019-03-31T00:15:56.863Z,0.00
2019-03-31T00:16:56.854Z,0.00
2019-03-31T00:17:56.851Z,0.00
2019-03-31T00:18:56.844Z,0.00
2019-03-31T00:19:56.840Z,0.00
2019-03-31T00:20:56.840Z,0.00
2019-03-31T00:21:56.825Z,0.00
2019-03-31T00:22:56.816Z,0.00
2019-03-31T00:23:56.804Z,0.00
2019-03-31T00:24:56.799Z,0.00
2019-03-31T00:25:56.795Z,0.00
2019-03-31T00:26:56.789Z,0.00
2019-03-31T00:27:56.780Z,0.00
2019-03-31T00:28:56.771Z,0.00
2019-03-31T00:29:56.766Z,0.00
2019-03-31T00:30:56.757Z,0.00
2019-03-31T00:31:56.755Z,0.00
2019-03-31T00:32:56.749Z,0.00
2019-03-31T00:33:56.746Z,0.00
2019-03-31T00:34:56.736Z,0.00
2019-03-31T00:35:56.723Z,0.00
2019-03-31T00:36:56.716Z,0.00
2019-03-31T00:37:56.768Z,0.00
2019-03-31T00:38:56.700Z,0.00
2019-03-31T00:39:56.695Z,0.00
2019-03-31T00:40:56.689Z,0.00
2019-03-31T00:41:56.679Z,0.00
2019-03-31T00:42:56.670Z,0.00
2019-03-31T00:43:56.669Z,0.00
2019-03-31T00:44:56.661Z,0.00
2019-03-31T00:45:56.657Z,0.00
2019-03-31T00:46:56.652Z,0.00
2019-03-31T00:47:56.641Z,0.00
2019-03-31T00:48:56.632Z,0.00
2019-03-31T00:49:56.624Z,0.00
2019-03-31T00:50:56.615Z,0.00
2019-03-31T00:51:56.616Z,0.00
2019-03-31T00:52:56.606Z,0.00
2019-03-31T00:53:56.597Z,0.00
2019-03-31T00:54:56.589Z,0.00
2019-03-31T00:55:56.578Z,0.00
2019-03-31T00:56:56.576Z,0.00
2019-03-31T00:57:56.569Z,0.00
2019-03-31T00:58:56.559Z,0.00
2019-03-31T00:59:56.549Z,0.00
2019-03-31T01:00:56.541Z,0.00
2019-03-31T01:01:56.537Z,0.00
2019-03-31T01:02:56.531Z,0.00
2019-03-31T01:03:56.527Z,0.00
2019-03-31T01:04:56.522Z,0.00
2019-03-31T01:05:56.512Z,0.00
2019-03-31T01:06:56.504Z,0.00
2019-03-31T01:07:56.493Z,0.00
2019-03-31T01:08:56.487Z,0.00
2019-03-31T01:09:56.484Z,0.00
2019-03-31T01:10:56.467Z,0.00
2019-03-31T01:11:56.465Z,0.00
2019-03-31T01:12:56.459Z,0.00
2019-03-31T01:13:56.445Z,0.00
2019-03-31T01:14:56.440Z,0.00
2019-03-31T01:15:56.442Z,0.00
2019-03-31T01:16:56.446Z,0.00
2019-03-31T01:17:56.426Z,0.00
2019-03-31T01:18:56.416Z,0.00
2019-03-31T01:19:56.405Z,0.00
2019-03-31T01:20:56.398Z,0.00
2019-03-31T01:21:56.388Z,0.00
2019-03-31T01:22:56.380Z,0.00
2019-03-31T01:23:56.381Z,0.00
2019-03-31T01:24:56.370Z,0.00
2019-03-31T01:25:56.366Z,0.00
2019-03-31T01:26:56.359Z,0.00
2019-03-31T01:27:56.347Z,0.00
2019-03-31T01:28:56.339Z,0.00
2019-03-31T01:29:56.338Z,0.00
2019-03-31T01:30:56.329Z,0.00
2019-03-31T01:31:56.322Z,0.00
2019-03-31T01:32:56.313Z,0.00
2019-03-31T01:33:56.300Z,0.00
2019-03-31T01:34:56.363Z,0.00
2019-03-31T01:35:56.295Z,0.00
2019-03-31T01:36:56.287Z,0.00
2019-03-31T01:37:56.279Z,0.00
2019-03-31T01:38:56.302Z,0.00
2019-03-31T01:39:56.256Z,0.00
2019-03-31T01:40:56.259Z,0.00
2019-03-31T01:41:56.246Z,0.00
2019-03-31T01:42:56.246Z,0.00
2019-03-31T01:43:56.237Z,0.00
2019-03-31T01:44:56.228Z,0.00
2019-03-31T01:45:56.218Z,0.00
2019-03-31T01:46:56.209Z,0.00
2019-03-31T01:47:56.209Z,0.00
2019-03-31T01:48:56.200Z,0.00
2019-03-31T01:49:56.190Z,0.00
2019-03-31T01:50:56.180Z,0.00
2019-03-31T01:51:56.174Z,0.00
2019-03-31T01:52:56.162Z,0.00
2019-03-31T01:53:56.156Z,0.00
2019-03-31T01:54:56.147Z,0.00
2019-03-31T01:55:56.144Z,0.00
2019-03-31T01:56:56.144Z,0.00
2019-03-31T01:57:56.136Z,0.00
2019-03-31T01:58:56.126Z,0.00
2019-03-31T01:59:56.116Z,0.00
2019-03-31T02:00:56.114Z,0.00
2019-03-31T02:02:04.187Z,0.00
2019-03-31T02:02:56.095Z,0.00
2019-03-31T02:03:56.084Z,0.00
2019-03-31T02:04:56.079Z,0.00
2019-03-31T02:05:56.068Z,0.00
2019-03-31T02:06:56.065Z,0.00
2019-03-31T02:07:56.058Z,0.00
2019-03-31T02:08:56.050Z,0.00
2019-03-31T02:09:56.043Z,0.00
2019-03-31T02:10:56.107Z,0.00
2019-03-31T02:11:56.023Z,0.00
2019-03-31T02:12:56.022Z,0.00
2019-03-31T02:13:56.017Z,0.00
2019-03-31T02:14:56.005Z,0.00
2019-03-31T02:15:56.006Z,0.00
2019-03-31T02:16:55.995Z,0.00
2019-03-31T02:17:55.987Z,0.00
2019-03-31T02:18:56.014Z,0.00
2019-03-31T02:19:55.971Z,0.00
2019-03-31T02:20:55.962Z,0.00
2019-03-31T02:21:55.956Z,0.00
2019-03-31T02:22:55.948Z,0.00
2019-03-31T02:23:55.935Z,0.00
2019-03-31T02:24:55.927Z,0.00
2019-03-31T02:25:55.926Z,0.00
2019-03-31T02:26:55.924Z,0.00
2019-03-31T02:27:55.914Z,0.00
2019-03-31T02:28:55.904Z,0.00
2019-03-31T02:29:55.896Z,0.00
2019-03-31T02:30:55.906Z,0.00
2019-03-31T02:31:55.879Z,0.00
2019-03-31T02:32:55.867Z,0.00
2019-03-31T02:33:55.867Z,0.00
2019-03-31T02:34:55.858Z,0.00
2019-03-31T02:35:55.852Z,0.00
2019-03-31T02:36:55.838Z,0.00
2019-03-31T02:37:55.833Z,0.00
2019-03-31T02:38:55.836Z,0.00
2019-03-31T02:39:55.823Z,0.00
2019-03-31T02:40:55.837Z,0.00
2019-03-31T02:41:55.823Z,0.00
2019-03-31T02:42:55.822Z,0.00
2019-03-31T02:43:55.788Z,0.00
2019-03-31T02:44:55.784Z,0.00
2019-03-31T02:45:55.772Z,0.00
2019-03-31T02:46:55.761Z,0.00
2019-03-31T02:47:55.760Z,0.00
2019-03-31T02:48:55.750Z,0.00
2019-03-31T02:49:55.742Z,0.00
2019-03-31T02:50:55.743Z,0.00
2019-03-31T02:51:55.727Z,0.00
2019-03-31T02:52:55.723Z,0.00
2019-03-31T02:53:55.715Z,0.00
2019-03-31T02:54:55.706Z,0.00
2019-03-31T02:55:55.696Z,0.00
2019-03-31T02:56:55.689Z,0.00
2019-03-31T02:57:55.695Z,0.00
2019-03-31T02:58:55.673Z,0.00
2019-03-31T02:59:55.669Z,0.00
2019-03-31T03:00:55.662Z,0.00
2019-03-31T03:01:55.651Z,0.00
2019-03-31T03:02:55.643Z,0.00
2019-03-31T03:03:55.631Z,0.00
2019-03-31T03:04:55.624Z,0.00
2019-03-31T03:05:55.621Z,0.00
2019-03-31T03:06:55.613Z,0.00
2019-03-31T03:07:55.599Z,0.00
2019-03-31T03:08:55.595Z,0.00
2019-03-31T03:09:55.589Z,0.00
2019-03-31T03:10:55.578Z,0.00
2019-03-31T03:11:55.579Z,0.00
2019-03-31T03:12:55.605Z,0.00
2019-03-31T03:13:55.561Z,0.00
2019-03-31T03:14:55.555Z,0.00
2019-03-31T03:15:55.559Z,0.00
2019-03-31T03:16:55.533Z,0.00
2019-03-31T03:17:55.526Z,0.00
2019-03-31T03:18:55.519Z,0.00
2019-03-31T03:19:55.511Z,0.00
2019-03-31T03:20:55.504Z,0.00
2019-03-31T03:21:55.493Z,0.00
2019-03-31T03:22:55.487Z,0.00
2019-03-31T03:23:55.480Z,0.00
2019-03-31T03:24:55.472Z,0.00
2019-03-31T03:25:56.770Z,0.00
2019-03-31T03:26:55.458Z,0.00
2019-03-31T03:27:55.447Z,0.00
2019-03-31T03:28:55.444Z,0.00
2019-03-31T03:29:55.435Z,0.00
2019-03-31T03:30:55.796Z,0.00
2019-03-31T03:31:55.416Z,0.00
2019-03-31T03:33:13.330Z,0.00
2019-03-31T03:33:55.498Z,0.00
2019-03-31T03:34:55.397Z,0.00
2019-03-31T03:35:55.384Z,0.00
2019-03-31T03:36:55.379Z,0.00
2019-03-31T03:37:55.369Z,0.00
2019-03-31T03:38:55.358Z,0.00
2019-03-31T03:39:55.359Z,0.00
2019-03-31T03:40:55.350Z,0.00
2019-03-31T03:41:55.343Z,0.00
2019-03-31T03:42:55.337Z,0.00
2019-03-31T03:43:59.621Z,0.00
2019-03-31T03:44:55.315Z,0.00
2019-03-31T03:45:55.307Z,0.00
2019-03-31T03:46:55.297Z,0.00
2019-03-31T03:47:55.296Z,0.00
2019-03-31T03:48:55.303Z,0.00
2019-03-31T03:49:55.283Z,0.00
2019-03-31T03:50:55.268Z,0.00
2019-03-31T03:51:55.255Z,0.00
2019-03-31T03:52:55.247Z,0.00
2019-03-31T03:53:55.242Z,0.00
2019-03-31T03:54:55.235Z,0.00
2019-03-31T03:55:55.229Z,0.00
2019-03-31T03:56:55.219Z,0.00
2019-03-31T03:57:55.213Z,0.00
2019-03-31T03:58:55.202Z,0.00
2019-03-31T03:59:55.208Z,0.00
2019-03-31T04:00:55.196Z,0.00
2019-03-31T04:01:55.184Z,0.00
2019-03-31T04:02:55.177Z,0.00
2019-03-31T04:03:55.171Z,0.00
2019-03-31T04:04:55.264Z,0.00
2019-03-31T04:05:55.148Z,0.00
2019-03-31T04:06:55.142Z,0.00
2019-03-31T04:07:55.134Z,0.00
2019-03-31T04:08:55.125Z,0.00
2019-03-31T04:09:55.124Z,0.00
2019-03-31T04:10:55.104Z,0.00
2019-03-31T04:11:55.101Z,0.00
2019-03-31T04:12:55.122Z,0.00
2019-03-31T04:13:55.089Z,0.00
2019-03-31T04:14:55.082Z,0.00
2019-03-31T04:15:55.070Z,0.00
2019-03-31T04:16:55.059Z,0.00
2019-03-31T04:17:55.052Z,0.00
2019-03-31T04:18:55.044Z,0.00
2019-03-31T04:19:55.044Z,0.00
2019-03-31T04:20:55.050Z,0.00
2019-03-31T04:21:55.020Z,0.00
2019-03-31T04:22:55.013Z,0.00
2019-03-31T04:23:55.001Z,0.00
2019-03-31T04:24:54.994Z,0.00
2019-03-31T04:25:54.988Z,0.00
2019-03-31T04:26:54.979Z,0.00
2019-03-31T04:27:54.968Z,0.00
2019-03-31T04:28:54.969Z,0.00
2019-03-31T04:29:54.955Z,0.00
2019-03-31T04:30:54.960Z,0.00
2019-03-31T04:31:54.941Z,0.00
2019-03-31T04:32:54.934Z,0.00
2019-03-31T04:33:54.925Z,0.00
2019-03-31T04:34:54.915Z,0.00
2019-03-31T04:35:54.903Z,0.00
2019-03-31T04:36:54.894Z,0.00
2019-03-31T04:37:54.891Z,0.00
2019-03-31T04:38:54.880Z,0.00
2019-03-31T04:39:54.878Z,4.00
2019-03-31T04:40:54.870Z,4.00
2019-03-31T04:41:54.858Z,0.00
2019-03-31T04:42:54.848Z,4.00
2019-03-31T04:43:54.846Z,0.00
2019-03-31T04:44:54.838Z,4.00
2019-03-31T04:45:54.825Z,4.00
2019-03-31T04:46:54.818Z,4.00
2019-03-31T04:47:54.807Z,8.00
2019-03-31T04:48:54.805Z,8.00
2019-03-31T04:49:54.789Z,8.00
2019-03-31T04:50:54.782Z,8.00
2019-03-31T04:51:54.776Z,8.00
2019-03-31T04:52:54.769Z,16.00
2019-03-31T04:53:54.765Z,16.00
2019-03-31T04:54:54.755Z,20.00
2019-03-31T04:55:54.744Z,20.00
2019-03-31T04:56:54.736Z,24.00
2019-03-31T04:57:54.730Z,28.00
2019-03-31T04:58:54.723Z,36.00
2019-03-31T04:59:54.712Z,40.00
2019-03-31T05:00:54.704Z,44.00
2019-03-31T05:01:54.692Z,52.00
2019-03-31T05:02:54.684Z,60.00
2019-03-31T05:04:04.627Z,68.00
2019-03-31T05:04:54.672Z,76.00
2019-03-31T05:05:54.665Z,84.00
2019-03-31T05:06:54.658Z,96.00
2019-03-31T05:07:54.643Z,108.00
2019-03-31T05:08:54.641Z,120.00
2019-03-31T05:09:54.632Z,132.00
2019-03-31T05:10:54.626Z,140.00
2019-03-31T05:11:54.619Z,156.00
2019-03-31T05:12:54.611Z,172.00
2019-03-31T05:13:54.599Z,188.00
2019-03-31T05:14:54.589Z,204.00
2019-03-31T05:15:54.585Z,220.00
2019-03-31T05:16:54.578Z,240.00
2019-03-31T05:17:54.568Z,260.00
2019-03-31T05:18:54.559Z,276.00
2019-03-31T05:19:54.547Z,300.00
2019-03-31T05:20:54.538Z,332.00
2019-03-31T05:21:54.533Z,360.00
2019-03-31T05:22:54.523Z,384.00
2019-03-31T05:23:54.521Z,404.00
2019-03-31T05:24:54.512Z,432.00
2019-03-31T05:25:54.506Z,464.00
2019-03-31T05:26:54.497Z,496.00
2019-03-31T05:27:54.485Z,524.00
2019-03-31T05:28:54.480Z,548.00
2019-03-31T05:29:54.474Z,568.00
2019-03-31T05:30:54.465Z,600.00
2019-03-31T05:31:54.454Z,624.00
2019-03-31T05:32:54.445Z,644.00
2019-03-31T05:33:54.437Z,668.00
2019-03-31T05:34:54.427Z,704.00
2019-03-31T05:35:54.423Z,744.00
2019-03-31T05:36:54.419Z,784.00
2019-03-31T05:37:54.411Z,824.00
2019-03-31T05:38:54.403Z,868.00
2019-03-31T05:39:54.394Z,912.00
2019-03-31T05:40:54.383Z,968.00
2019-03-31T05:41:54.374Z,1028.00
2019-03-31T05:42:54.363Z,1096.00
2019-03-31T05:44:05.079Z,1172.00
2019-03-31T05:44:54.352Z,1244.00
2019-03-31T05:45:54.349Z,1312.00
2019-03-31T05:46:54.332Z,1376.00
2019-03-31T05:47:54.328Z,1448.00
2019-03-31T05:48:54.320Z,1532.00
2019-03-31T05:49:54.320Z,1628.00
2019-03-31T05:50:54.310Z,1732.00
2019-03-31T05:51:54.296Z,1828.00
2019-03-31T05:52:54.287Z,1916.00
2019-03-31T05:53:54.282Z,1996.00
2019-03-31T05:54:54.273Z,2076.00
2019-03-31T05:55:54.272Z,2152.00
2019-03-31T05:56:54.261Z,2224.00
2019-03-31T05:57:54.251Z,2308.00
2019-03-31T05:58:54.245Z,2392.00
2019-03-31T05:59:54.230Z,2492.00
2019-03-31T06:00:54.228Z,2608.00
2019-03-31T06:01:54.222Z,2720.00
2019-03-31T06:02:54.213Z,2812.00
2019-03-31T06:03:54.200Z,2840.00
2019-03-31T06:04:54.195Z,2808.00
2019-03-31T06:05:54.193Z,2760.00
2019-03-31T06:06:54.181Z,2728.00
2019-03-31T06:07:54.177Z,2712.00
2019-03-31T06:08:54.175Z,2680.00
2019-03-31T06:09:54.164Z,2628.00
2019-03-31T06:10:54.156Z,2560.00
2019-03-31T06:11:54.145Z,2484.00
2019-03-31T06:12:54.138Z,2400.00
2019-03-31T06:13:54.128Z,2296.00
2019-03-31T06:14:54.121Z,2196.00
2019-03-31T06:15:54.120Z,2144.00
2019-03-31T06:16:54.112Z,2036.00
2019-03-31T06:17:54.105Z,1864.00
2019-03-31T06:18:54.093Z,1696.00
2019-03-31T06:19:54.090Z,1564.00
2019-03-31T06:20:54.087Z,1456.00
2019-03-31T06:21:54.079Z,1372.00
2019-03-31T06:22:54.073Z,1344.00
2019-03-31T06:23:54.059Z,1356.00
2019-03-31T06:24:54.055Z,1368.00
2019-03-31T06:25:54.071Z,1404.00
2019-03-31T06:26:54.039Z,1452.00
2019-03-31T06:27:54.037Z,1480.00
2019-03-31T06:28:54.031Z,1516.00
2019-03-31T06:29:54.023Z,1580.00
2019-03-31T06:30:54.012Z,1656.00
2019-03-31T06:31:54.005Z,1780.00
2019-03-31T06:32:55.619Z,1924.00
2019-03-31T06:33:53.993Z,1988.00
2019-03-31T06:34:53.987Z,2008.00
2019-03-31T06:35:53.974Z,2012.00
2019-03-31T06:36:53.969Z,1996.00
2019-03-31T06:37:53.965Z,1904.00
2019-03-31T06:38:53.957Z,1824.00
2019-03-31T06:39:53.958Z,1792.00
2019-03-31T06:40:53.947Z,1848.00
2019-03-31T06:41:53.938Z,1992.00
2019-03-31T06:42:53.933Z,2196.00
2019-03-31T06:43:53.918Z,2456.00
2019-03-31T06:44:53.913Z,2700.00
2019-03-31T06:45:53.909Z,2892.00
2019-03-31T06:46:53.901Z,3108.00
2019-03-31T06:47:53.899Z,3384.00
2019-03-31T06:48:53.893Z,3660.00
2019-03-31T06:49:53.880Z,3892.00
2019-03-31T06:50:53.875Z,4028.00
2019-03-31T06:51:53.873Z,4116.00
2019-03-31T06:52:53.865Z,4116.00
2019-03-31T06:53:53.855Z,4124.00
2019-03-31T06:54:53.850Z,4168.00
2019-03-31T06:55:53.841Z,4208.00
2019-03-31T06:56:53.831Z,4128.00
2019-03-31T06:57:53.830Z,3920.00
2019-03-31T06:58:53.816Z,3656.00
2019-03-31T06:59:53.816Z,3512.00
2019-03-31T07:00:53.808Z,3508.00
2019-03-31T07:01:53.805Z,3520.00
2019-03-31T07:02:53.875Z,3556.00
2019-03-31T07:03:53.787Z,3580.00
2019-03-31T07:05:00.846Z,3564.00
2019-03-31T07:05:53.779Z,3528.00
2019-03-31T07:06:53.770Z,3480.00
2019-03-31T07:07:53.764Z,3400.00
2019-03-31T07:08:53.755Z,3284.00
2019-03-31T07:09:53.745Z,3188.00
2019-03-31T07:10:53.740Z,3160.00
2019-03-31T07:11:53.737Z,3132.00
2019-03-31T07:12:53.732Z,3108.00
2019-03-31T07:13:53.724Z,3060.00
2019-03-31T07:14:53.729Z,2980.00
2019-03-31T07:15:53.706Z,2868.00
2019-03-31T07:16:53.699Z,2724.00
2019-03-31T07:17:53.695Z,2536.00
2019-03-31T07:18:53.689Z,2336.00
2019-03-31T07:19:53.686Z,2164.00
2019-03-31T07:20:53.681Z,2036.00
2019-03-31T07:21:53.672Z,1960.00
2019-03-31T07:22:53.663Z,1908.00
2019-03-31T07:23:53.664Z,1880.00
2019-03-31T07:24:53.657Z,1820.00
2019-03-31T07:25:53.647Z,1728.00
2019-03-31T07:26:53.640Z,1584.00
2019-03-31T07:27:53.628Z,1448.00
2019-03-31T07:28:53.622Z,1344.00
2019-03-31T07:29:53.615Z,1272.00
2019-03-31T07:30:53.611Z,1232.00
2019-03-31T07:31:53.606Z,1196.00
2019-03-31T07:32:53.601Z,1168.00
2019-03-31T07:33:53.595Z,1152.00
2019-03-31T07:34:53.587Z,1168.00
2019-03-31T07:35:53.577Z,1220.00
2019-03-31T07:36:53.570Z,1284.00
2019-03-31T07:37:53.566Z,1312.00
2019-03-31T07:38:53.760Z,1296.00
2019-03-31T07:39:53.668Z,1276.00
2019-03-31T07:40:53.580Z,1292.00
2019-03-31T07:41:53.924Z,1340.00
2019-03-31T07:42:53.661Z,1384.00
2019-03-31T07:43:53.525Z,1420.00
2019-03-31T07:44:53.515Z,1432.00
2019-03-31T07:45:55.784Z,1448.00
2019-03-31T07:46:53.500Z,1460.00
2019-03-31T07:47:53.488Z,1452.00
2019-03-31T07:48:53.486Z,1404.00
2019-03-31T07:49:53.479Z,1344.00
2019-03-31T07:50:53.469Z,1292.00
2019-03-31T07:51:53.470Z,1256.00
2019-03-31T07:52:53.462Z,1232.00
2019-03-31T07:53:53.448Z,1200.00
2019-03-31T07:54:53.440Z,1160.00
2019-03-31T07:55:53.438Z,1104.00
2019-03-31T07:56:53.431Z,1052.00
2019-03-31T07:57:54.658Z,1008.00
2019-03-31T07:58:53.500Z,980.00
2019-03-31T07:59:56.494Z,976.00
2019-03-31T08:00:53.393Z,980.00
2019-03-31T08:01:53.388Z,1000.00
2019-03-31T08:02:53.379Z,1044.00
2019-03-31T08:03:53.374Z,1108.00
2019-03-31T08:04:53.367Z,1176.00
2019-03-31T08:05:53.438Z,1236.00
2019-03-31T08:06:53.356Z,1288.00
2019-03-31T08:07:53.344Z,1324.00
2019-03-31T08:08:53.615Z,1348.00
2019-03-31T08:09:53.333Z,1356.00
2019-03-31T08:10:53.325Z,1356.00
2019-03-31T08:11:53.314Z,1344.00
2019-03-31T08:12:53.305Z,1332.00
2019-03-31T08:13:55.273Z,1320.00
2019-03-31T08:14:53.289Z,1304.00
2019-03-31T08:15:53.284Z,1320.00
2019-03-31T08:16:53.278Z,1360.00
2019-03-31T08:17:53.273Z,1424.00
2019-03-31T08:18:53.263Z,1496.00
2019-03-31T08:19:53.249Z,1572.00
2019-03-31T08:20:53.240Z,1680.00
2019-03-31T08:21:53.235Z,1792.00
2019-03-31T08:22:53.231Z,1856.00
2019-03-31T08:23:53.224Z,1908.00
2019-03-31T08:24:53.221Z,1908.00
2019-03-31T08:25:53.206Z,1868.00
2019-03-31T08:26:53.197Z,1796.00
2019-03-31T08:27:53.194Z,1740.00
2019-03-31T08:28:53.185Z,1688.00
2019-03-31T08:30:00.472Z,1620.00
2019-03-31T08:30:53.168Z,1552.00
2019-03-31T08:31:53.153Z,1488.00
2019-03-31T08:32:53.148Z,1464.00
2019-03-31T08:33:53.139Z,1460.00
2019-03-31T08:34:53.130Z,1496.00
2019-03-31T08:35:53.126Z,1568.00
2019-03-31T08:36:53.122Z,1684.00
2019-03-31T08:37:53.113Z,1764.00
2019-03-31T08:38:53.103Z,1780.00
2019-03-31T08:39:53.098Z,1772.00
2019-03-31T08:40:53.083Z,1784.00
2019-03-31T08:41:53.083Z,1816.00
2019-03-31T08:42:53.071Z,1856.00
2019-03-31T08:43:53.061Z,1872.00
2019-03-31T08:44:53.059Z,1860.00
2019-03-31T08:45:53.044Z,1820.00
2019-03-31T08:46:53.032Z,1756.00
2019-03-31T08:47:53.029Z,1700.00
2019-03-31T08:48:53.020Z,1664.00
2019-03-31T08:49:53.016Z,1624.00
2019-03-31T08:50:53.008Z,1576.00
2019-03-31T08:51:52.995Z,1524.00
2019-03-31T08:52:52.987Z,1488.00
2019-03-31T08:53:52.977Z,1460.00
2019-03-31T08:54:52.967Z,1412.00
2019-03-31T08:55:52.964Z,1360.00
2019-03-31T08:56:52.956Z,1324.00
2019-03-31T08:57:52.944Z,1300.00
2019-03-31T08:58:52.936Z,1288.00
2019-03-31T08:59:52.931Z,1284.00
2019-03-31T09:00:52.925Z,1284.00
2019-03-31T09:01:52.919Z,1292.00
2019-03-31T09:02:52.908Z,1300.00
2019-03-31T09:03:52.900Z,1316.00
2019-03-31T09:04:52.889Z,1328.00
2019-03-31T09:06:01.764Z,1356.00
2019-03-31T09:06:52.871Z,1388.00
2019-03-31T09:07:52.868Z,1428.00
2019-03-31T09:08:52.860Z,1480.00
2019-03-31T09:09:52.855Z,1568.00
2019-03-31T09:10:52.840Z,1656.00
2019-03-31T09:11:52.827Z,1732.00
2019-03-31T09:12:52.820Z,1800.00
2019-03-31T09:13:52.818Z,1872.00
2019-03-31T09:14:52.810Z,1956.00
2019-03-31T09:15:52.797Z,2036.00
2019-03-31T09:16:52.787Z,1816.00
2019-03-31T09:17:54.330Z,1996.00
2019-03-31T09:18:52.775Z,2072.00
2019-03-31T09:19:52.768Z,2152.00
2019-03-31T09:20:52.763Z,2252.00
2019-03-31T09:21:52.753Z,2348.00
2019-03-31T09:22:52.742Z,2424.00
2019-03-31T09:23:52.734Z,2492.00
2019-03-31T09:24:52.722Z,2548.00
2019-03-31T09:25:52.710Z,2616.00
2019-03-31T09:26:52.705Z,2708.00
2019-03-31T09:27:52.699Z,2788.00
2019-03-31T09:28:52.692Z,2864.00
2019-03-31T09:29:52.677Z,2936.00
2019-03-31T09:30:52.668Z,3000.00
2019-03-31T09:31:52.665Z,3048.00
2019-03-31T09:32:52.657Z,3088.00
2019-03-31T09:33:52.662Z,3120.00
2019-03-31T09:34:52.643Z,3160.00
2019-03-31T09:35:52.630Z,3196.00
2019-03-31T09:36:52.622Z,3220.00
2019-03-31T09:37:52.614Z,3224.00
2019-03-31T09:38:52.606Z,3228.00
2019-03-31T09:39:52.602Z,3240.00
2019-03-31T09:40:52.595Z,3256.00
2019-03-31T09:41:52.585Z,3276.00
2019-03-31T09:42:52.573Z,3308.00
2019-03-31T09:43:52.568Z,3364.00
2019-03-31T09:44:52.554Z,3436.00
2019-03-31T09:45:52.625Z,3508.00
2019-03-31T09:46:52.542Z,3572.00
2019-03-31T09:47:52.531Z,3644.00
2019-03-31T09:48:52.522Z,3696.00
2019-03-31T09:49:52.517Z,3732.00
2019-03-31T09:50:52.507Z,3772.00
2019-03-31T09:51:52.504Z,3832.00
2019-03-31T09:52:52.502Z,3900.00
2019-03-31T09:53:52.488Z,3940.00
2019-03-31T09:54:52.478Z,3948.00
2019-03-31T09:55:52.466Z,3936.00
2019-03-31T09:56:52.459Z,3916.00
2019-03-31T09:57:52.454Z,3888.00
2019-03-31T09:58:52.446Z,3848.00
2019-03-31T09:59:52.458Z,3812.00
2019-03-31T10:00:52.436Z,3784.00
2019-03-31T10:01:52.422Z,3768.00
2019-03-31T10:02:52.414Z,3764.00
2019-03-31T10:03:52.411Z,3784.00
2019-03-31T10:04:52.429Z,3812.00
2019-03-31T10:05:52.392Z,3848.00
2019-03-31T10:06:52.385Z,3900.00
2019-03-31T10:07:52.371Z,3972.00
2019-03-31T10:08:52.365Z,4048.00
2019-03-31T10:09:52.359Z,4084.00
2019-03-31T10:10:52.351Z,4112.00
2019-03-31T10:11:52.345Z,4144.00
2019-03-31T10:12:52.339Z,4172.00
2019-03-31T10:13:52.335Z,4212.00
2019-03-31T10:14:54.256Z,4256.00
2019-03-31T10:15:52.316Z,4312.00
2019-03-31T10:16:52.306Z,4392.00
2019-03-31T10:17:52.303Z,4480.00
2019-03-31T10:18:52.295Z,4568.00
2019-03-31T10:19:52.284Z,4652.00
2019-03-31T10:20:52.276Z,4728.00
2019-03-31T10:21:52.267Z,4784.00
2019-03-31T10:22:52.259Z,4820.00
2019-03-31T10:23:52.257Z,4884.00
2019-03-31T10:24:52.249Z,4952.00
2019-03-31T10:25:52.243Z,5096.00
2019-03-31T10:26:52.232Z,5296.00
2019-03-31T10:27:52.221Z,5492.00
2019-03-31T10:28:52.214Z,5604.00
2019-03-31T10:29:52.210Z,5684.00
2019-03-31T10:30:52.201Z,5768.00
2019-03-31T10:31:52.200Z,5860.00
2019-03-31T10:32:52.191Z,5896.00
2019-03-31T10:33:52.183Z,5956.00
2019-03-31T10:34:52.176Z,5980.00
2019-03-31T10:35:52.170Z,5952.00
2019-03-31T10:36:52.166Z,5908.00
2019-03-31T10:37:52.156Z,5868.00
2019-03-31T10:38:52.147Z,5852.00
2019-03-31T10:39:52.138Z,5864.00
2019-03-31T10:40:52.130Z,5876.00
2019-03-31T10:41:52.123Z,5936.00
2019-03-31T10:42:52.115Z,6128.00
2019-03-31T10:43:52.114Z,6444.00
2019-03-31T10:44:52.107Z,6804.00
2019-03-31T10:45:52.103Z,7108.00
2019-03-31T10:46:52.099Z,7284.00
2019-03-31T10:47:52.086Z,7356.00
2019-03-31T10:48:52.079Z,7372.00
2019-03-31T10:49:52.078Z,7340.00
2019-03-31T10:50:52.068Z,7444.00
2019-03-31T10:51:52.059Z,7716.00
2019-03-31T10:52:52.052Z,8164.00
2019-03-31T10:53:52.043Z,8556.00
2019-03-31T10:54:52.037Z,8824.00
2019-03-31T10:55:52.037Z,8988.00
2019-03-31T10:56:52.030Z,9052.00
2019-03-31T10:57:52.028Z,8988.00
2019-03-31T10:58:52.017Z,9196.00
2019-03-31T10:59:52.008Z,9080.00
2019-03-31T11:00:52.001Z,9060.00
2019-03-31T11:01:51.992Z,9088.00
2019-03-31T11:02:51.987Z,9152.00
2019-03-31T11:03:51.984Z,9252.00
2019-03-31T11:04:51.978Z,9376.00
2019-03-31T11:05:51.968Z,9560.00
2019-03-31T11:06:58.885Z,9908.00
2019-03-31T11:07:51.972Z,10256.00
2019-03-31T11:08:51.955Z,10540.00
2019-03-31T11:09:51.951Z,10764.00
2019-03-31T11:10:51.944Z,10864.00
2019-03-31T11:11:51.934Z,11000.00
2019-03-31T11:12:51.931Z,11196.00
2019-03-31T11:13:51.924Z,11388.00
2019-03-31T11:14:51.919Z,11556.00
2019-03-31T11:15:51.933Z,11808.00
2019-03-31T11:16:51.913Z,12240.00
2019-03-31T11:17:51.905Z,12336.00
2019-03-31T11:18:51.897Z,12272.00
2019-03-31T11:19:51.888Z,12312.00
2019-03-31T11:20:51.886Z,12652.00
2019-03-31T11:21:51.882Z,14112.00
2019-03-31T11:22:51.877Z,13180.00
2019-03-31T11:23:51.867Z,14504.00
2019-03-31T11:24:51.863Z,13276.00
2019-03-31T11:25:51.863Z,18976.00
2019-03-31T11:26:51.856Z,12060.00
2019-03-31T11:27:51.856Z,12436.00
2019-03-31T11:28:51.852Z,18496.00
2019-03-31T11:29:51.847Z,12504.00
2019-03-31T11:30:51.844Z,10732.00
2019-03-31T11:31:51.835Z,9848.00
2019-03-31T11:32:51.833Z,9764.00
2019-03-31T11:33:51.826Z,9376.00
2019-03-31T11:34:51.820Z,8980.00
2019-03-31T11:35:51.823Z,9848.00
2019-03-31T11:36:51.818Z,10952.00
2019-03-31T11:37:51.809Z,12084.00
2019-03-31T11:38:51.808Z,12672.00
2019-03-31T11:39:51.806Z,13552.00
2019-03-31T11:40:51.804Z,14628.00
2019-03-31T11:41:51.803Z,15336.00
2019-03-31T11:42:51.799Z,15740.00
2019-03-31T11:43:51.791Z,15732.00
2019-03-31T11:44:51.788Z,15892.00
2019-03-31T11:45:51.784Z,15704.00
2019-03-31T11:46:51.779Z,15296.00
2019-03-31T11:47:51.780Z,14964.00
2019-03-31T11:48:51.781Z,14956.00
2019-03-31T11:49:51.772Z,14884.00
2019-03-31T11:50:51.766Z,14468.00
2019-03-31T11:51:51.759Z,14152.00
2019-03-31T11:52:51.757Z,13956.00
2019-03-31T11:53:51.760Z,13928.00
2019-03-31T11:54:51.754Z,13780.00
2019-03-31T11:55:51.748Z,13636.00
2019-03-31T11:56:51.744Z,13364.00
2019-03-31T11:57:51.795Z,13544.00
2019-03-31T11:58:51.745Z,13124.00
2019-03-31T11:59:51.742Z,12888.00
2019-03-31T12:00:51.741Z,12672.00
2019-03-31T12:01:51.730Z,12528.00
2019-03-31T12:02:51.725Z,12340.00
2019-03-31T12:03:51.727Z,12328.00
2019-03-31T12:04:51.725Z,12064.00
2019-03-31T12:05:51.724Z,12044.00
2019-03-31T12:06:51.720Z,11832.00
2019-03-31T12:07:51.712Z,11860.00
2019-03-31T12:08:51.710Z,11816.00
2019-03-31T12:09:51.712Z,11724.00
2019-03-31T12:10:51.710Z,11680.00
2019-03-31T12:11:51.703Z,11644.00
2019-03-31T12:12:51.697Z,11576.00
2019-03-31T12:13:51.695Z,11516.00
2019-03-31T12:15:00.377Z,11480.00
2019-03-31T12:15:51.687Z,11472.00
2019-03-31T12:16:51.686Z,11344.00
2019-03-31T12:17:51.683Z,11200.00
2019-03-31T12:18:51.678Z,11056.00
2019-03-31T12:19:51.669Z,10872.00
2019-03-31T12:20:51.665Z,10696.00
2019-03-31T12:21:51.666Z,10540.00
2019-03-31T12:22:51.661Z,10384.00
2019-03-31T12:23:51.661Z,10204.00
2019-03-31T12:24:51.661Z,10096.00
2019-03-31T12:25:51.650Z,10040.00
2019-03-31T12:26:51.647Z,9936.00
2019-03-31T12:27:51.647Z,9740.00
2019-03-31T12:28:51.644Z,9548.00
2019-03-31T12:29:51.639Z,9384.00
2019-03-31T12:30:51.632Z,9192.00
2019-03-31T12:31:51.625Z,9104.00
2019-03-31T12:32:51.621Z,9064.00